Time;durP1;ratioP1;P1;durP2;ratioP2;P2;SDS_P1;SDS_P2;PMS_P1;PMS_P2;Temp;Humidity;BMP_temperature;BMP_pressure;BME280_temperature;BME280_humidity;BME280_pressure;Samples;Min_cycle;Max_cycle;Signal;HPM_P1;HPM_P2
2023/10/12 00:02:00;;;;;;;2.00;0.60;;;;;;;;;;5032139;28;20033;-66
2023/10/12 00:07:15;;;;;;;4.55;0.70;;;;;;;;;;5033988;28;20055;-67
2023/10/12 00:09:48;;;;;;;1.52;0.60;;;;;;;;;;5033370;28;20037;-65
2023/10/12 00:12:15;;;;;;;3.00;0.55;;;;;;;;;;5036122;28;20239;-65
2023/10/12 00:14:42;;;;;;;2.58;0.80;;;;;;;;;;5037508;28;20100;-65
2023/10/12 00:17:09;;;;;;;2.78;0.70;;;;;;;;;;5038564;28;20530;-65
2023/10/12 00:19:38;;;;;;;3.30;0.68;;;;;;;;;;5037344;28;20041;-67
2023/10/12 00:22:11;;;;;;;2.38;0.50;;;;;;;;;;5036419;28;20093;-66
2023/10/12 00:24:39;;;;;;;2.35;0.60;;;;;;;;;;5035323;28;20487;-65
2023/10/12 00:27:08;;;;;;;1.83;0.60;;;;;;;;;;5036066;28;20130;-64
2023/10/12 00:29:39;;;;;;;1.70;0.60;;;;;;;;;;5034735;28;20470;-67
2023/10/12 00:32:07;;;;;;;2.42;0.70;;;;;;;;;;5035146;28;20080;-65
2023/10/12 00:34:46;;;;;;;2.28;0.77;;;;;;;;;;5034368;28;20224;-67
2023/10/12 00:37:14;;;;;;;2.45;0.70;;;;;;;;;;5065888;28;20115;-67
2023/10/12 00:42:35;;;;;;;2.20;0.70;;;;;;;;;;5009212;28;20048;-67
2023/10/12 00:45:11;;;;;;;1.85;0.60;;;;;;;;;;5034298;28;20041;-65
2023/10/12 00:47:44;;;;;;;3.30;0.68;;;;;;;;;;5031553;28;20053;-66
2023/10/12 00:50:12;;;;;;;1.40;0.43;;;;;;;;;;5033830;28;20045;-66
2023/10/12 00:55:35;;;;;;;1.73;0.50;;;;;;;;;;5015605;28;20065;-66
2023/10/12 00:58:08;;;;;;;1.40;0.60;;;;;;;;;;5032236;28;20159;-66
2023/10/12 01:01:01;;;;;;;1.52;0.50;;;;;;;;;;5032667;28;20392;-66
2023/10/12 01:03:30;;;;;;;1.00;0.50;;;;;;;;;;5032463;28;20106;-66
2023/10/12 01:08:36;;;;;;;1.77;0.50;;;;;;;;;;5031925;28;20049;-66
2023/10/12 01:11:08;;;;;;;1.70;0.63;;;;;;;;;;5033487;28;20033;-64
2023/10/12 01:13:35;;;;;;;1.02;0.45;;;;;;;;;;5034146;28;20079;-66
2023/10/12 01:16:11;;;;;;;1.98;0.57;;;;;;;;;;5068187;28;20044;-65
2023/10/12 01:18:38;;;;;;;1.52;0.50;;;;;;;;;;5035672;28;20036;-66
2023/10/12 01:21:11;;;;;;;1.10;0.50;;;;;;;;;;5036888;28;20970;-65
2023/10/12 01:23:41;;;;;;;1.65;0.63;;;;;;;;;;5033803;28;20060;-66
2023/10/12 01:26:11;;;;;;;3.75;0.65;;;;;;;;;;5036899;28;20457;-65
2023/10/12 01:28:38;;;;;;;4.65;0.60;;;;;;;;;;5035019;28;20106;-64
2023/10/12 01:31:05;;;;;;;1.70;0.55;;;;;;;;;;5057411;28;20041;-66
2023/10/12 01:33:32;;;;;;;1.33;0.55;;;;;;;;;;5034424;28;20047;-66
2023/10/12 01:35:59;;;;;;;0.93;0.40;;;;;;;;;;5035123;28;20067;-66
2023/10/12 01:38:36;;;;;;;1.92;0.70;;;;;;;;;;5035430;28;20044;-65
2023/10/12 01:41:09;;;;;;;1.30;0.50;;;;;;;;;;5036173;28;20040;-64
2023/10/12 01:43:36;;;;;;;1.42;0.50;;;;;;;;;;5035606;28;20047;-66
2023/10/12 01:46:07;;;;;;;2.17;0.65;;;;;;;;;;5034950;28;20047;-66
2023/10/12 01:48:34;;;;;;;1.83;0.50;;;;;;;;;;5035866;28;20087;-65
2023/10/12 01:51:16;;;;;;;0.95;0.50;;;;;;;;;;5070323;28;20457;-65
2023/10/12 01:53:43;;;;;;;2.08;0.68;;;;;;;;;;5038623;28;20125;-65
2023/10/12 01:56:10;;;;;;;2.97;0.80;;;;;;;;;;5037054;28;20167;-65
2023/10/12 01:58:38;;;;;;;2.10;0.63;;;;;;;;;;5039143;28;20028;-67
2023/10/12 02:01:07;;;;;;;2.40;0.60;;;;;;;;;;5048768;28;20041;-67
2023/10/12 02:03:42;;;;;;;3.88;0.70;;;;;;;;;;5039407;28;20394;-66
2023/10/12 02:06:16;;;;;;;1.83;0.60;;;;;;;;;;5040057;28;20037;-66
2023/10/12 02:08:47;;;;;;;1.98;0.68;;;;;;;;;;5037184;28;20064;-66
2023/10/12 02:13:55;;;;;;;2.60;0.70;;;;;;;;;;5035914;28;20037;-66
2023/10/12 02:16:30;;;;;;;2.08;0.60;;;;;;;;;;5038019;28;20037;-66
2023/10/12 02:18:57;;;;;;;2.40;0.70;;;;;;;;;;5037870;28;20069;-64
2023/10/12 02:21:25;;;;;;;2.60;0.80;;;;;;;;;;5064260;28;20486;-67
2023/10/12 02:31:39;;;;;;;1.23;0.50;;;;;;;;;;5033227;28;20045;-64
2023/10/12 02:34:06;;;;;;;1.98;0.70;;;;;;;;;;5033966;28;20735;-65
2023/10/12 02:36:33;;;;;;;2.10;0.65;;;;;;;;;;5065078;28;20041;-67
2023/10/12 02:39:10;;;;;;;1.23;0.57;;;;;;;;;;5047161;28;20056;-65
2023/10/12 02:41:51;;;;;;;1.67;0.50;;;;;;;;;;5033380;28;20437;-66
2023/10/12 02:44:19;;;;;;;1.73;0.55;;;;;;;;;;5033795;28;20037;-65
2023/10/12 02:47:30;;;;;;;0.95;0.40;;;;;;;;;;5031840;28;20064;-66
2023/10/12 02:49:39;;;;;;;1.98;0.60;;;;;;;;;;5024464;28;20453;-67
2023/10/12 02:52:08;;;;;;;0.95;0.40;;;;;;;;;;5031110;28;20139;-64
2023/10/12 02:54:50;;;;;;;2.30;0.60;;;;;;;;;;5030948;28;20052;-66
2023/10/12 02:57:30;;;;;;;2.55;0.60;;;;;;;;;;5034500;28;20037;-65
2023/10/12 03:00:19;;;;;;;2.42;0.60;;;;;;;;;;5038513;28;20088;-65
2023/10/12 03:02:46;;;;;;;2.25;0.65;;;;;;;;;;5031227;28;20348;-65
2023/10/12 03:05:17;;;;;;;2.65;0.60;;;;;;;;;;5031895;28;20047;-65
2023/10/12 03:07:44;;;;;;;1.70;0.50;;;;;;;;;;5032531;28;20339;-64
2023/10/12 03:10:26;;;;;;;2.47;0.50;;;;;;;;;;5063371;28;20497;-65
2023/10/12 03:12:55;;;;;;;2.38;0.70;;;;;;;;;;5033992;28;20045;-65
2023/10/12 03:15:40;;;;;;;1.27;0.50;;;;;;;;;;5049591;28;20033;-66
2023/10/12 03:18:11;;;;;;;2.15;0.77;;;;;;;;;;5056032;28;20068;-65
2023/10/12 03:20:38;;;;;;;2.45;0.63;;;;;;;;;;5050985;28;20037;-66
2023/10/12 03:23:16;;;;;;;1.60;0.60;;;;;;;;;;5053019;28;20114;-65
2023/10/12 03:25:46;;;;;;;1.95;0.70;;;;;;;;;;5050617;28;20068;-63
2023/10/12 03:28:29;;;;;;;2.05;0.60;;;;;;;;;;5051365;28;20052;-65
2023/10/12 03:31:11;;;;;;;1.73;0.60;;;;;;;;;;5052318;28;20040;-66
2023/10/12 03:33:39;;;;;;;2.30;0.52;;;;;;;;;;5051675;28;20049;-66
2023/10/12 03:36:25;;;;;;;2.05;0.70;;;;;;;;;;5051780;28;20086;-67
2023/10/12 03:44:21;;;;;;;4.10;0.80;;;;;;;;;;5054478;28;20460;-65
2023/10/12 03:47:00;;;;;;;1.23;0.60;;;;;;;;;;5051745;28;21098;-65
2023/10/12 03:52:12;;;;;;;1.75;0.60;;;;;;;;;;5054799;28;20028;-65
2023/10/12 03:54:45;;;;;;;2.00;0.60;;;;;;;;;;5054204;28;20048;-66
2023/10/12 03:57:26;;;;;;;1.40;0.50;;;;;;;;;;5055358;28;20133;-65
2023/10/12 04:00:25;;;;;;;1.90;0.50;;;;;;;;;;5054571;28;20036;-67
2023/10/12 04:02:53;;;;;;;1.23;0.50;;;;;;;;;;5053560;28;20121;-66
2023/10/12 04:05:35;;;;;;;2.67;0.75;;;;;;;;;;5021370;28;20044;-67
2023/10/12 04:08:51;;;;;;;1.55;0.50;;;;;;;;;;5047256;28;20144;-67
2023/10/12 04:18:42;;;;;;;1.73;0.50;;;;;;;;;;5035007;28;20048;-66
2023/10/12 04:21:10;;;;;;;1.15;0.50;;;;;;;;;;5035240;28;20040;-65
2023/10/12 04:26:38;;;;;;;1.83;0.60;;;;;;;;;;5034879;28;20763;-68
2023/10/12 04:29:13;;;;;;;1.45;0.50;;;;;;;;;;5034747;28;20036;-64
2023/10/12 04:34:15;;;;;;;1.02;0.40;;;;;;;;;;5034692;28;20099;-64
2023/10/12 04:42:00;;;;;;;1.15;0.40;;;;;;;;;;5033220;28;20208;-64
2023/10/12 04:46:59;;;;;;;1.70;0.50;;;;;;;;;;5062069;28;20121;-63
2023/10/12 04:57:30;;;;;;;1.08;0.40;;;;;;;;;;5037125;28;20110;-65
2023/10/12 05:07:56;;;;;;;2.28;0.55;;;;;;;;;;5050805;28;20414;-66
2023/10/12 05:10:27;;;;;;;1.15;0.40;;;;;;;;;;5042317;28;20077;-66
2023/10/12 05:13:03;;;;;;;1.45;0.50;;;;;;;;;;5037870;28;20039;-66
2023/10/12 05:15:39;;;;;;;3.33;0.60;;;;;;;;;;5037353;28;20029;-66
2023/10/12 05:18:13;;;;;;;1.90;0.50;;;;;;;;;;5006709;28;20067;-65
2023/10/12 05:20:43;;;;;;;0.70;0.40;;;;;;;;;;5046388;28;20037;-66
2023/10/12 05:23:11;;;;;;;1.38;0.50;;;;;;;;;;5041051;28;20117;-66
2023/10/12 05:26:25;;;;;;;1.77;0.50;;;;;;;;;;5038621;28;20104;-66
2023/10/12 05:28:32;;;;;;;1.58;0.50;;;;;;;;;;5028141;28;20179;-66
2023/10/12 05:30:59;;;;;;;1.55;0.50;;;;;;;;;;5035858;28;20037;-66
2023/10/12 05:36:08;;;;;;;2.17;0.55;;;;;;;;;;5037735;28;20095;-66
2023/10/12 05:38:59;;;;;;;3.70;0.50;;;;;;;;;;5035028;28;20091;-66
2023/10/12 05:41:34;;;;;;;1.75;0.52;;;;;;;;;;5034586;28;20479;-66
2023/10/12 05:44:08;;;;;;;0.57;0.40;;;;;;;;;;5036254;28;20352;-67
2023/10/12 05:46:35;;;;;;;1.00;0.43;;;;;;;;;;5035088;28;20045;-65
2023/10/12 05:49:12;;;;;;;0.80;0.40;;;;;;;;;;5034972;28;20124;-66
2023/10/12 05:51:43;;;;;;;1.20;0.40;;;;;;;;;;5033777;28;20040;-66
2023/10/12 05:54:10;;;;;;;1.45;0.50;;;;;;;;;;5036933;28;20044;-65
2023/10/12 05:56:37;;;;;;;1.00;0.40;;;;;;;;;;5035073;28;20037;-65
2023/10/12 05:59:04;;;;;;;1.20;0.50;;;;;;;;;;5035221;28;21733;-65
2023/10/12 06:01:35;;;;;;;1.85;0.40;;;;;;;;;;5065784;28;20433;-65
2023/10/12 06:04:08;;;;;;;0.85;0.50;;;;;;;;;;5040055;28;20048;-66
2023/10/12 06:06:41;;;;;;;1.38;0.50;;;;;;;;;;5053916;28;20271;-65
2023/10/12 06:09:20;;;;;;;1.35;0.50;;;;;;;;;;5073494;28;20064;-66
2023/10/12 06:11:47;;;;;;;1.65;0.50;;;;;;;;;;5053399;28;20036;-64
2023/10/12 06:14:15;;;;;;;0.60;0.40;;;;;;;;;;5033534;28;20052;-64
2023/10/12 06:16:42;;;;;;;3.00;0.50;;;;;;;;;;5033060;28;20086;-65
2023/10/12 06:19:22;;;;;;;1.80;0.50;;;;;;;;;;5045676;28;20061;-64
2023/10/12 06:21:51;;;;;;;1.35;0.50;;;;;;;;;;5048284;28;20049;-66
2023/10/12 06:24:22;;;;;;;1.08;0.50;;;;;;;;;;5034516;28;20115;-65
2023/10/12 06:26:49;;;;;;;1.08;0.40;;;;;;;;;;5035010;28;20094;-64
2023/10/12 06:29:25;;;;;;;2.47;0.50;;;;;;;;;;5054475;28;20109;-65
2023/10/12 06:31:54;;;;;;;0.90;0.47;;;;;;;;;;5056987;28;20076;-66
2023/10/12 06:34:24;;;;;;;1.15;0.40;;;;;;;;;;5057859;28;21080;-66
2023/10/12 06:36:57;;;;;;;2.65;0.60;;;;;;;;;;5044381;28;20070;-65
2023/10/12 06:44:27;;;;;;;0.93;0.50;;;;;;;;;;5051016;28;20059;-65
2023/10/12 06:46:54;;;;;;;1.42;0.50;;;;;;;;;;5048012;28;20045;-65
2023/10/12 06:49:22;;;;;;;1.83;0.65;;;;;;;;;;5048318;28;20041;-65
2023/10/12 06:52:01;;;;;;;1.08;0.40;;;;;;;;;;5034773;28;20037;-65
2023/10/12 06:58:14;;;;;;;0.95;0.40;;;;;;;;;;5050883;28;20067;-66
2023/10/12 07:02:29;;;;;;;1.58;0.52;;;;;;;;;;5032530;28;20037;-65
2023/10/12 07:04:57;;;;;;;2.83;0.60;;;;;;;;;;5033732;28;20254;-66
2023/10/12 07:07:27;;;;;;;0.95;0.45;;;;;;;;;;5034866;28;20053;-65
2023/10/12 07:10:31;;;;;;;1.60;0.50;;;;;;;;;;5037375;28;20125;-64
2023/10/12 07:12:50;;;;;;;3.10;0.60;;;;;;;;;;5034011;28;20660;-66
2023/10/12 07:15:31;;;;;;;1.05;0.40;;;;;;;;;;5038266;28;20128;-66
2023/10/12 07:17:58;;;;;;;1.33;0.50;;;;;;;;;;5038701;28;20132;-65
2023/10/12 07:20:48;;;;;;;1.40;0.40;;;;;;;;;;5037928;28;20033;-65
2023/10/12 07:23:15;;;;;;;1.33;0.50;;;;;;;;;;5040075;28;20033;-65
2023/10/12 07:25:59;;;;;;;0.90;0.40;;;;;;;;;;5038820;28;20037;-65
2023/10/12 07:28:36;;;;;;;1.35;0.50;;;;;;;;;;5034973;28;20636;-63
2023/10/12 07:33:59;;;;;;;1.52;0.50;;;;;;;;;;5033197;28;20112;-66
2023/10/12 07:39:42;;;;;;;0.95;0.43;;;;;;;;;;5032315;28;20045;-63
2023/10/12 07:42:01;;;;;;;1.88;0.60;;;;;;;;;;5034625;28;20095;-66
2023/10/12 07:44:28;;;;;;;0.85;0.40;;;;;;;;;;5034943;28;20206;-66
2023/10/12 07:46:58;;;;;;;1.02;0.43;;;;;;;;;;5033920;28;20064;-64
2023/10/12 07:49:37;;;;;;;1.48;0.50;;;;;;;;;;5032123;28;20120;-64
2023/10/12 07:57:20;;;;;;;1.08;0.40;;;;;;;;;;5031139;28;20482;-69
2023/10/12 08:02:59;;;;;;;1.98;0.40;;;;;;;;;;5031722;28;20407;-64
2023/10/12 08:08:17;;;;;;;1.15;0.50;;;;;;;;;;5031521;28;20131;-64
2023/10/12 08:13:25;;;;;;;1.23;0.50;;;;;;;;;;5034357;28;20033;-64
2023/10/12 08:21:31;;;;;;;0.95;0.40;;;;;;;;;;4990319;28;20053;-64
2023/10/12 08:24:15;;;;;;;;;;;;;;;;;;4991681;28;20042;-63
2023/10/12 08:31:48;;;;;;;2.58;0.60;;;;;;;;;;4989507;28;20045;-62
2023/10/12 08:42:37;;;;;;;1.20;0.50;;;;;;;;;;5023032;28;20049;-63
2023/10/12 08:45:09;;;;;;;1.33;0.50;;;;;;;;;;5008692;28;20037;-64
2023/10/12 08:50:47;;;;;;;0.95;0.45;;;;;;;;;;5010255;28;20261;-63
2023/10/12 08:52:58;;;;;;;1.65;0.60;;;;;;;;;;5009678;28;20098;-65
2023/10/12 08:55:31;;;;;;;1.73;0.50;;;;;;;;;;5009026;28;20499;-64
2023/10/12 08:58:18;;;;;;;1.10;0.50;;;;;;;;;;5023109;28;20044;-63
2023/10/12 09:00:55;;;;;;;1.55;0.50;;;;;;;;;;5072253;28;20649;-63
2023/10/12 09:03:25;;;;;;;1.65;0.50;;;;;;;;;;5072261;28;20040;-64
2023/10/12 09:05:52;;;;;;;1.20;0.40;;;;;;;;;;5073582;28;20040;-64
2023/10/12 09:10:55;;;;;;;1.83;0.55;;;;;;;;;;5073697;28;20375;-63
2023/10/12 09:13:22;;;;;;;0.88;0.40;;;;;;;;;;5072472;28;20548;-62
2023/10/12 09:15:56;;;;;;;1.63;0.43;;;;;;;;;;5085999;28;20044;-64
2023/10/12 09:18:24;;;;;;;;;;;;;;;;;;5072049;28;20047;-64
2023/10/12 09:23:33;;;;;;;1.33;0.50;;;;;;;;;;5072602;28;20052;-64
2023/10/12 09:31:14;;;;;;;1.30;0.50;;;;;;;;;;5072170;28;20055;-65
2023/10/12 09:36:29;;;;;;;1.92;0.57;;;;;;;;;;5075837;28;20111;-65
2023/10/12 09:39:00;;;;;;;1.83;0.60;;;;;;;;;;5078684;28;20052;-65
2023/10/12 09:41:35;;;;;;;1.80;0.60;;;;;;;;;;5076181;28;20066;-65
2023/10/12 09:44:04;;;;;;;2.47;0.60;;;;;;;;;;5075499;28;20097;-65
2023/10/12 09:46:32;;;;;;;1.23;0.50;;;;;;;;;;5074382;28;20058;-65
2023/10/12 09:49:21;;;;;;;0.80;0.40;;;;;;;;;;5075445;28;20395;-64
2023/10/12 09:51:50;;;;;;;2.22;0.60;;;;;;;;;;5073084;28;20044;-65
2023/10/12 09:54:27;;;;;;;2.88;0.70;;;;;;;;;;5075499;28;20434;-65
2023/10/12 09:56:57;;;;;;;2.65;0.70;;;;;;;;;;5074247;28;20028;-64
2023/10/12 09:59:28;;;;;;;1.80;0.60;;;;;;;;;;5074570;28;20081;-65
2023/10/12 10:02:02;;;;;;;2.78;0.60;;;;;;;;;;5073346;28;20043;-61
2023/10/12 10:04:28;;;;;;;;;;;;;;;;;;5074928;28;20036;-61
2023/10/12 10:07:20;;;;;;;1.63;0.57;;;;;;;;;;5075695;28;20318;-63
2023/10/12 10:10:06;;;;;;;3.00;0.60;;;;;;;;;;5076105;28;20063;-62
2023/10/12 10:12:36;;;;;;;1.70;0.55;;;;;;;;;;5074699;28;20122;-62
2023/10/12 10:15:10;;;;;;;1.55;0.50;;;;;;;;;;5076116;28;21179;-62
2023/10/12 10:17:46;;;;;;;1.55;0.60;;;;;;;;;;5055699;28;20441;-62
2023/10/12 10:23:11;;;;;;;2.38;0.70;;;;;;;;;;5075892;28;20602;-62
2023/10/12 10:25:50;;;;;;;1.63;0.50;;;;;;;;;;5077305;28;20114;-64
2023/10/12 10:28:26;;;;;;;1.35;0.50;;;;;;;;;;5078597;28;20051;-65
2023/10/12 10:30:56;;;;;;;2.30;0.80;;;;;;;;;;5090299;28;20040;-64
2023/10/12 10:33:24;;;;;;;1.90;0.60;;;;;;;;;;5075692;28;20426;-60
2023/10/12 10:35:57;;;;;;;2.50;0.70;;;;;;;;;;5076035;28;20032;-64
2023/10/12 10:38:30;;;;;;;1.33;0.50;;;;;;;;;;5074769;28;20055;-66
2023/10/12 10:41:05;;;;;;;1.00;0.47;;;;;;;;;;5075514;28;20464;-63
2023/10/12 10:43:37;;;;;;;1.60;0.60;;;;;;;;;;5075313;28;21298;-64
2023/10/12 10:46:16;;;;;;;1.83;0.50;;;;;;;;;;5074380;28;20111;-63
2023/10/12 10:48:49;;;;;;;2.38;0.60;;;;;;;;;;5072696;28;20097;-65
2023/10/12 10:51:19;;;;;;;1.17;0.50;;;;;;;;;;5074009;28;20434;-64
2023/10/12 10:53:55;;;;;;;1.45;0.50;;;;;;;;;;5075022;28;20044;-64
2023/10/12 10:59:02;;;;;;;2.60;0.60;;;;;;;;;;5074669;28;20031;-66
2023/10/12 11:01:30;;;;;;;2.95;0.70;;;;;;;;;;5074902;28;20109;-62
2023/10/12 11:03:58;;;;;;;2.50;0.70;;;;;;;;;;5074268;28;20097;-65
2023/10/12 11:06:27;;;;;;;1.73;0.60;;;;;;;;;;5085353;28;20036;-66
2023/10/12 11:09:14;;;;;;;2.00;0.70;;;;;;;;;;5049229;28;20056;-68
2023/10/12 11:11:48;;;;;;;2.50;0.70;;;;;;;;;;5074076;28;20133;-65
2023/10/12 11:14:17;;;;;;;3.92;0.75;;;;;;;;;;5079353;28;20182;-67
2023/10/12 11:16:48;;;;;;;1.80;0.55;;;;;;;;;;5082004;27;20158;-67
2023/10/12 11:19:18;;;;;;;1.23;0.60;;;;;;;;;;5074193;28;20032;-64
2023/10/12 11:21:57;;;;;;;1.98;0.65;;;;;;;;;;5087003;28;20440;-65
2023/10/12 11:24:24;;;;;;;3.30;0.80;;;;;;;;;;5074121;28;20063;-64
2023/10/12 11:26:51;;;;;;;2.88;0.70;;;;;;;;;;5073990;28;20043;-65
2023/10/12 11:29:18;;;;;;;1.88;0.70;;;;;;;;;;5070713;28;20409;-66
2023/10/12 11:32:16;;;;;;;3.33;0.70;;;;;;;;;;5073312;28;20143;-66
2023/10/12 11:34:50;;;;;;;2.05;0.70;;;;;;;;;;5073395;28;20028;-66
2023/10/12 11:37:17;;;;;;;4.28;0.63;;;;;;;;;;5073711;28;20053;-67
2023/10/12 11:40:06;;;;;;;1.48;0.50;;;;;;;;;;5048899;28;20147;-64
2023/10/12 11:42:33;;;;;;;2.13;0.70;;;;;;;;;;5048906;28;20098;-65
2023/10/12 11:45:09;;;;;;;2.08;0.68;;;;;;;;;;5049230;28;20775;-66
2023/10/12 11:47:38;;;;;;;2.45;0.70;;;;;;;;;;5048742;28;20200;-65
2023/10/12 11:50:09;;;;;;;2.00;0.70;;;;;;;;;;5049504;28;20619;-66
2023/10/12 11:52:39;;;;;;;2.60;0.70;;;;;;;;;;5033234;28;20040;-64
2023/10/12 11:55:18;;;;;;;1.33;0.60;;;;;;;;;;5052697;28;20123;-63
2023/10/12 11:57:48;;;;;;;2.85;0.68;;;;;;;;;;5040978;28;20037;-65
2023/10/12 12:00:29;;;;;;;1.83;0.60;;;;;;;;;;5048593;28;20040;-64
2023/10/12 12:03:02;;;;;;;3.30;0.80;;;;;;;;;;5047859;28;20051;-65
2023/10/12 12:05:36;;;;;;;2.65;0.80;;;;;;;;;;5048460;28;20040;-65
2023/10/12 12:08:14;;;;;;;3.20;0.70;;;;;;;;;;5049459;28;20135;-65
2023/10/12 12:10:52;;;;;;;1.90;0.70;;;;;;;;;;5056490;28;20036;-64
2023/10/12 12:13:20;;;;;;;2.50;0.80;;;;;;;;;;5076773;28;20158;-65
2023/10/12 12:15:47;;;;;;;2.17;0.70;;;;;;;;;;5064612;28;20178;-65
2023/10/12 12:18:18;;;;;;;2.50;0.80;;;;;;;;;;5059257;28;20032;-65
2023/10/12 12:20:47;;;;;;;6.70;1.00;;;;;;;;;;5070939;28;20040;-65
2023/10/12 12:23:14;;;;;;;2.33;0.70;;;;;;;;;;5074470;28;21162;-64
2023/10/12 12:25:41;;;;;;;2.45;0.80;;;;;;;;;;5067418;28;20043;-65
2023/10/12 12:28:13;;;;;;;2.50;0.68;;;;;;;;;;5052460;28;20044;-63
2023/10/12 12:30:46;;;;;;;3.30;0.85;;;;;;;;;;5088546;28;20043;-63
2023/10/12 12:33:16;;;;;;;2.33;0.75;;;;;;;;;;5059417;28;20031;-64
2023/10/12 12:35:45;;;;;;;2.85;0.73;;;;;;;;;;5075262;28;20497;-63
2023/10/12 12:40:57;;;;;;;3.15;0.85;;;;;;;;;;5079520;28;20549;-64
2023/10/12 12:43:24;;;;;;;2.30;0.80;;;;;;;;;;5071057;28;20829;-65
2023/10/12 12:45:52;;;;;;;2.70;0.75;;;;;;;;;;5070211;28;20502;-64
2023/10/12 12:48:21;;;;;;;3.33;0.90;;;;;;;;;;5070044;28;20093;-65
2023/10/12 12:50:48;;;;;;;2.22;0.90;;;;;;;;;;5082627;28;21865;-64
2023/10/12 12:53:18;;;;;;;2.53;0.80;;;;;;;;;;5072497;28;20044;-65
2023/10/12 12:56:02;;;;;;;2.88;0.70;;;;;;;;;;5034488;28;20156;-64
2023/10/12 12:58:28;;;;;;;1.83;0.70;;;;;;;;;;5033357;28;20037;-63
2023/10/12 13:00:55;;;;;;;2.65;0.80;;;;;;;;;;5038735;28;20447;-64
2023/10/12 13:03:22;;;;;;;1.60;0.68;;;;;;;;;;5046735;28;20037;-62
2023/10/12 13:05:48;;;;;;;4.28;0.63;;;;;;;;;;5023518;28;20675;-64
2023/10/12 13:08:16;;;;;;;3.05;0.73;;;;;;;;;;5031848;28;20053;-63
2023/10/12 13:10:44;;;;;;;3.17;0.70;;;;;;;;;;5033078;28;20102;-63
2023/10/12 13:13:12;;;;;;;1.90;0.70;;;;;;;;;;5032284;28;20135;-64
2023/10/12 13:15:47;;;;;;;3.10;0.77;;;;;;;;;;5041139;28;20433;-63
2023/10/12 13:18:16;;;;;;;3.08;0.80;;;;;;;;;;5036553;28;20040;-60
2023/10/12 13:20:46;;;;;;;2.47;0.75;;;;;;;;;;5028460;28;20107;-63
2023/10/12 13:23:21;;;;;;;3.45;0.70;;;;;;;;;;5048603;28;20045;-64
2023/10/12 13:25:48;;;;;;;1.73;0.60;;;;;;;;;;5023975;28;20049;-63
2023/10/12 13:28:16;;;;;;;2.42;0.73;;;;;;;;;;5070836;28;20474;-61
2023/10/12 13:30:44;;;;;;;2.38;0.70;;;;;;;;;;5084094;28;20046;-61
2023/10/12 13:33:13;;;;;;;2.80;0.93;;;;;;;;;;5080836;28;20169;-63
2023/10/12 13:38:09;;;;;;;2.88;0.85;;;;;;;;;;5076055;28;20454;-62
2023/10/12 13:40:44;;;;;;;2.60;0.88;;;;;;;;;;5056324;28;20541;-63
2023/10/12 13:43:26;;;;;;;2.35;0.80;;;;;;;;;;5077870;28;20094;-63
2023/10/12 13:45:54;;;;;;;4.70;1.10;;;;;;;;;;5071093;28;20147;-62
2023/10/12 13:48:22;;;;;;;2.65;0.95;;;;;;;;;;5087457;28;20079;-64
2023/10/12 13:50:53;;;;;;;3.40;1.00;;;;;;;;;;5076721;28;20161;-64
2023/10/12 13:53:20;;;;;;;2.38;0.75;;;;;;;;;;5074874;28;20047;-64
2023/10/12 13:55:50;;;;;;;2.92;0.85;;;;;;;;;;5076113;28;20375;-63
2023/10/12 13:58:17;;;;;;;3.03;0.90;;;;;;;;;;5078025;28;20036;-63
2023/10/12 14:00:43;;;;;;;19.65;1.20;;;;;;;;;;5069267;28;20033;-63
2023/10/12 14:03:17;;;;;;;2.75;0.95;;;;;;;;;;5089080;28;20052;-64
2023/10/12 14:05:46;;;;;;;2.85;0.85;;;;;;;;;;5076000;28;20508;-64
2023/10/12 14:08:13;;;;;;;3.47;1.00;;;;;;;;;;5078360;28;21757;-64
2023/10/12 14:10:44;;;;;;;3.45;1.10;;;;;;;;;;5069176;28;20367;-64
2023/10/12 14:13:13;;;;;;;4.32;0.90;;;;;;;;;;5089245;28;20040;-64
2023/10/12 14:15:43;;;;;;;3.00;1.00;;;;;;;;;;5074913;28;20047;-64
2023/10/12 14:18:16;;;;;;;2.35;0.80;;;;;;;;;;5071558;28;20043;-62
2023/10/12 14:20:46;;;;;;;3.63;0.95;;;;;;;;;;5081395;28;20044;-62
2023/10/12 14:23:13;;;;;;;4.40;1.08;;;;;;;;;;5076531;28;20430;-64
2023/10/12 14:25:47;;;;;;;3.80;1.08;;;;;;;;;;5075534;28;20047;-63
2023/10/12 14:28:17;;;;;;;3.63;1.00;;;;;;;;;;5072812;27;20057;-63
2023/10/12 14:30:47;;;;;;;2.92;0.80;;;;;;;;;;5068148;28;20039;-63
2023/10/12 14:33:22;;;;;;;2.80;0.90;;;;;;;;;;5079056;28;20807;-63
2023/10/12 14:35:51;;;;;;;3.80;1.00;;;;;;;;;;5075601;28;20040;-63
2023/10/12 14:38:18;;;;;;;3.42;1.20;;;;;;;;;;5075866;28;20040;-63
2023/10/12 14:40:46;;;;;;;3.03;0.93;;;;;;;;;;5073616;28;20387;-65
2023/10/12 14:43:14;;;;;;;4.22;1.10;;;;;;;;;;5071856;28;20044;-63
2023/10/12 14:45:45;;;;;;;2.42;0.90;;;;;;;;;;5076247;28;20048;-63
2023/10/12 14:48:12;;;;;;;4.07;1.10;;;;;;;;;;5073324;28;20443;-64
2023/10/12 14:50:43;;;;;;;3.83;1.10;;;;;;;;;;5099999;28;20024;-64
2023/10/12 14:53:10;;;;;;;2.78;0.82;;;;;;;;;;5100068;28;20132;-61
2023/10/12 14:55:40;;;;;;;2.28;0.77;;;;;;;;;;5083134;28;20407;-63
2023/10/12 14:58:09;;;;;;;4.10;1.00;;;;;;;;;;5071076;27;20753;-64
2023/10/12 15:00:36;;;;;;;3.15;0.98;;;;;;;;;;5077692;27;20040;-63
2023/10/12 15:03:04;;;;;;;2.58;0.85;;;;;;;;;;5071896;28;20092;-63
2023/10/12 15:05:32;;;;;;;3.13;1.17;;;;;;;;;;5075862;28;20119;-65
2023/10/12 15:07:59;;;;;;;4.28;1.08;;;;;;;;;;5087549;28;20040;-64
2023/10/12 15:10:25;;;;;;;2.55;1.10;;;;;;;;;;5073608;28;20316;-63
2023/10/12 15:12:56;;;;;;;2.88;1.10;;;;;;;;;;5066732;27;20028;-62
2023/10/12 15:15:25;;;;;;;4.85;1.10;;;;;;;;;;5072746;28;20120;-63
2023/10/12 15:17:52;;;;;;;3.60;1.40;;;;;;;;;;5085059;28;20056;-64
2023/10/12 15:20:22;;;;;;;3.13;1.13;;;;;;;;;;5074721;28;20058;-64
2023/10/12 15:22:48;;;;;;;3.20;1.33;;;;;;;;;;5073376;28;20475;-64
2023/10/12 15:25:19;;;;;;;2.90;1.10;;;;;;;;;;5074311;28;20592;-63
2023/10/12 15:27:54;;;;;;;4.43;1.38;;;;;;;;;;5072712;28;20092;-64
2023/10/12 15:30:22;;;;;;;3.65;1.40;;;;;;;;;;5073118;28;20121;-64
2023/10/12 15:32:50;;;;;;;3.38;1.50;;;;;;;;;;5071729;28;20043;-64
2023/10/12 15:35:25;;;;;;;4.53;1.50;;;;;;;;;;5072587;28;20040;-64
2023/10/12 15:37:52;;;;;;;7.18;1.50;;;;;;;;;;5072256;28;20063;-64
2023/10/12 15:40:25;;;;;;;4.07;1.67;;;;;;;;;;5072454;28;20044;-64
2023/10/12 15:42:55;;;;;;;3.88;1.48;;;;;;;;;;5072490;28;20145;-64
2023/10/12 15:45:25;;;;;;;3.20;1.48;;;;;;;;;;5074118;28;20553;-65
2023/10/12 15:47:52;;;;;;;4.53;1.48;;;;;;;;;;5073188;28;20415;-64
2023/10/12 15:50:19;;;;;;;4.57;1.42;;;;;;;;;;5073704;28;20055;-63
2023/10/12 15:52:47;;;;;;;3.88;1.58;;;;;;;;;;5073122;28;20093;-64
2023/10/12 15:55:14;;;;;;;3.85;1.55;;;;;;;;;;5075059;28;20676;-64
2023/10/12 15:57:44;;;;;;;3.65;1.52;;;;;;;;;;5072231;28;20755;-63
2023/10/12 16:00:31;;;;;;;3.08;1.38;;;;;;;;;;5073547;28;20040;-64
2023/10/12 16:02:58;;;;;;;5.07;1.42;;;;;;;;;;5075298;28;20040;-63
2023/10/12 16:05:30;;;;;;;4.15;1.15;;;;;;;;;;5073577;28;20735;-64
2023/10/12 16:07:58;;;;;;;3.13;1.30;;;;;;;;;;5071808;28;20052;-62
2023/10/12 16:10:28;;;;;;;2.95;1.20;;;;;;;;;;5071517;28;20071;-63
2023/10/12 16:12:55;;;;;;;3.38;1.25;;;;;;;;;;5073749;28;20032;-65
2023/10/12 16:15:24;;;;;;;3.40;1.30;;;;;;;;;;5086566;28;20107;-64
2023/10/12 16:17:51;;;;;;;3.35;1.55;;;;;;;;;;5073255;28;20046;-64
2023/10/12 16:20:18;;;;;;;3.90;1.50;;;;;;;;;;5074448;28;20448;-65
2023/10/12 16:22:46;;;;;;;3.97;1.45;;;;;;;;;;5072696;28;20060;-64
2023/10/12 16:25:15;;;;;;;3.38;1.40;;;;;;;;;;5074457;28;20036;-63
2023/10/12 16:27:45;;;;;;;3.85;1.67;;;;;;;;;;5073619;28;21446;-65
2023/10/12 16:30:15;;;;;;;4.40;1.63;;;;;;;;;;5072625;28;20040;-65
2023/10/12 16:32:48;;;;;;;3.50;1.42;;;;;;;;;;5073015;28;20040;-65
2023/10/12 16:35:23;;;;;;;5.03;1.67;;;;;;;;;;5073540;28;20493;-64
2023/10/12 16:37:56;;;;;;;4.90;1.70;;;;;;;;;;5072730;28;20116;-64
2023/10/12 16:40:22;;;;;;;;;;;;;;;;;;5073614;28;20043;-65
2023/10/12 16:42:49;;;;;;;3.10;1.48;;;;;;;;;;5071294;28;19927;-66
2023/10/12 16:45:19;;;;;;;3.97;1.83;;;;;;;;;;5076780;28;20047;-64
2023/10/12 16:47:47;;;;;;;4.30;2.00;;;;;;;;;;5076249;28;20044;-64
2023/10/12 16:50:14;;;;;;;4.15;1.90;;;;;;;;;;5076470;28;20044;-64
2023/10/12 16:52:43;;;;;;;5.05;2.30;;;;;;;;;;5076361;28;20083;-63
2023/10/12 16:55:11;;;;;;;5.88;2.35;;;;;;;;;;5077756;28;20032;-64
2023/10/12 16:57:38;;;;;;;5.13;2.33;;;;;;;;;;5058568;28;20046;-65
2023/10/12 17:00:08;;;;;;;5.53;2.55;;;;;;;;;;5077646;28;20050;-65
2023/10/12 17:02:38;;;;;;;5.00;2.85;;;;;;;;;;5075252;28;21386;-65
2023/10/12 17:05:04;;;;;;;6.22;2.55;;;;;;;;;;5075815;28;20121;-63
2023/10/12 17:07:31;;;;;;;4.35;2.08;;;;;;;;;;5056235;28;20378;-67
2023/10/12 17:10:03;;;;;;;5.30;2.33;;;;;;;;;;5076367;28;20032;-64
2023/10/12 17:12:32;;;;;;;5.25;2.70;;;;;;;;;;5075196;28;20076;-64
2023/10/12 17:15:01;;;;;;;7.68;3.25;;;;;;;;;;5076433;28;20085;-65
2023/10/12 17:17:27;;;;;;;10.80;3.78;;;;;;;;;;5075344;28;20151;-64
2023/10/12 17:19:54;;;;;;;6.35;3.45;;;;;;;;;;5074651;28;20516;-64
2023/10/12 17:22:20;;;;;;;9.10;4.78;;;;;;;;;;5073859;28;20040;-66
2023/10/12 17:24:47;;;;;;;7.68;3.95;;;;;;;;;;5076601;28;20040;-65
2023/10/12 17:27:17;;;;;;;8.85;4.38;;;;;;;;;;5087865;27;20162;-64
2023/10/12 17:29:44;;;;;;;7.43;4.25;;;;;;;;;;5073249;28;20036;-65
2023/10/12 17:32:11;;;;;;;8.07;4.30;;;;;;;;;;5075792;28;20067;-66
2023/10/12 17:34:38;;;;;;;11.60;4.80;;;;;;;;;;5088421;28;20047;-64